sensor_id;sensor_type;location;lat;lon;timestamp;P1;durP1;ratioP1;P2;durP2;ratioP2
6941;SDS011;3510;43.200;27.920;2023-12-20T00:00:13;28.90;;;19.33;;
6941;SDS011;3510;43.200;27.920;2023-12-20T00:02:41;31.27;;;19.37;;
6941;SDS011;3510;43.200;27.920;2023-12-20T00:05:12;31.97;;;20.63;;
6941;SDS011;3510;43.200;27.920;2023-12-20T00:07:40;32.17;;;21.67;;
6941;SDS011;3510;43.200;27.920;2023-12-20T00:10:06;39.33;;;26.37;;
6941;SDS011;3510;43.200;27.920;2023-12-20T00:12:34;41.00;;;23.00;;
6941;SDS011;3510;43.200;27.920;2023-12-20T00:15:00;37.90;;;22.90;;
6941;SDS011;3510;43.200;27.920;2023-12-20T06:58:27;132.50;;;72.23;;
6941;SDS011;3510;43.200;27.920;2023-12-20T07:00:55;148.93;;;86.82;;
6941;SDS011;3510;43.200;27.920;2023-12-20T07:03:22;145.43;;;75.67;;
6941;SDS011;3510;43.200;27.920;2023-12-20T07:06:04;115.63;;;63.67;;
6941;SDS011;3510;43.200;27.920;2023-12-20T07:08:44;124.50;;;67.40;;
6941;SDS011;3510;43.200;27.920;2023-12-20T07:11:11;121.83;;;61.87;;
6941;SDS011;3510;43.200;27.920;2023-12-20T07:13:38;89.90;;;44.73;;
6941;SDS011;3510;43.200;27.920;2023-12-20T07:16:06;98.67;;;50.63;;
6941;SDS011;3510;43.200;27.920;2023-12-20T07:18:33;71.53;;;38.23;;
6941;SDS011;3510;43.200;27.920;2023-12-20T07:21:13;93.33;;;48.83;;
6941;SDS011;3510;43.200;27.920;2023-12-20T07:23:40;77.03;;;36.63;;
6941;SDS011;3510;43.200;27.920;2023-12-20T07:26:21;94.07;;;46.57;;
6941;SDS011;3510;43.200;27.920;2023-12-20T07:29:02;83.77;;;39.97;;
6941;SDS011;3510;43.200;27.920;2023-12-20T07:44:11;74.78;;;43.95;;
6941;SDS011;3510;43.200;27.920;2023-12-20T07:46:38;54.63;;;31.20;;
6941;SDS011;3510;43.200;27.920;2023-12-20T07:49:05;58.87;;;28.87;;
6941;SDS011;3510;43.200;27.920;2023-12-20T07:51:33;50.37;;;29.90;;
6941;SDS011;3510;43.200;27.920;2023-12-20T07:54:00;49.30;;;30.37;;
6941;SDS011;3510;43.200;27.920;2023-12-20T07:56:29;39.93;;;24.07;;
6941;SDS011;3510;43.200;27.920;2023-12-20T07:58:55;57.17;;;25.53;;
6941;SDS011;3510;43.200;27.920;2023-12-20T08:01:24;39.17;;;21.83;;
6941;SDS011;3510;43.200;27.920;2023-12-20T08:03:50;46.37;;;30.50;;
6941;SDS011;3510;43.200;27.920;2023-12-20T08:06:17;44.90;;;27.47;;
6941;SDS011;3510;43.200;27.920;2023-12-20T08:08:44;51.43;;;30.87;;
6941;SDS011;3510;43.200;27.920;2023-12-20T08:11:11;49.43;;;26.03;;
6941;SDS011;3510;43.200;27.920;2023-12-20T08:13:38;50.83;;;28.00;;
6941;SDS011;3510;43.200;27.920;2023-12-20T08:16:07;46.07;;;25.60;;
6941;SDS011;3510;43.200;27.920;2023-12-20T08:18:36;39.37;;;23.30;;
6941;SDS011;3510;43.200;27.920;2023-12-20T08:21:03;43.00;;;23.43;;
6941;SDS011;3510;43.200;27.920;2023-12-20T08:23:32;40.20;;;22.93;;
6941;SDS011;3510;43.200;27.920;2023-12-20T08:26:03;39.93;;;22.77;;
6941;SDS011;3510;43.200;27.920;2023-12-20T08:28:31;40.77;;;23.70;;
6941;SDS011;3510;43.200;27.920;2023-12-20T08:30:57;40.60;;;21.63;;
6941;SDS011;3510;43.200;27.920;2023-12-20T08:33:24;34.70;;;19.17;;
6941;SDS011;3510;43.200;27.920;2023-12-20T08:35:52;34.13;;;18.67;;
6941;SDS011;3510;43.200;27.920;2023-12-20T08:38:22;35.50;;;20.67;;
6941;SDS011;3510;43.200;27.920;2023-12-20T08:40:49;24.27;;;17.27;;
6941;SDS011;3510;43.200;27.920;2023-12-20T08:43:15;27.57;;;16.87;;
6941;SDS011;3510;43.200;27.920;2023-12-20T08:45:42;34.20;;;19.47;;
6941;SDS011;3510;43.200;27.920;2023-12-20T08:48:09;26.07;;;19.17;;
6941;SDS011;3510;43.200;27.920;2023-12-20T08:50:36;35.77;;;21.53;;
6941;SDS011;3510;43.200;27.920;2023-12-20T08:53:05;26.83;;;17.67;;
6941;SDS011;3510;43.200;27.920;2023-12-20T08:55:34;31.13;;;17.63;;
6941;SDS011;3510;43.200;27.920;2023-12-20T08:58:01;18.47;;;14.07;;
6941;SDS011;3510;43.200;27.920;2023-12-20T09:00:28;25.27;;;14.57;;
6941;SDS011;3510;43.200;27.920;2023-12-20T09:02:55;23.80;;;16.07;;
6941;SDS011;3510;43.200;27.920;2023-12-20T09:05:21;19.23;;;12.43;;
6941;SDS011;3510;43.200;27.920;2023-12-20T09:07:50;25.23;;;13.30;;
6941;SDS011;3510;43.200;27.920;2023-12-20T09:10:18;13.00;;;9.80;;
6941;SDS011;3510;43.200;27.920;2023-12-20T09:12:47;15.80;;;9.90;;
6941;SDS011;3510;43.200;27.920;2023-12-20T09:15:14;12.40;;;8.60;;
6941;SDS011;3510;43.200;27.920;2023-12-20T09:17:41;16.30;;;9.33;;
6941;SDS011;3510;43.200;27.920;2023-12-20T09:20:09;15.00;;;9.50;;
6941;SDS011;3510;43.200;27.920;2023-12-20T09:22:36;10.27;;;8.17;;
6941;SDS011;3510;43.200;27.920;2023-12-20T09:25:04;10.43;;;8.60;;
6941;SDS011;3510;43.200;27.920;2023-12-20T09:27:33;10.37;;;8.83;;
6941;SDS011;3510;43.200;27.920;2023-12-20T09:29:59;9.67;;;8.00;;
6941;SDS011;3510;43.200;27.920;2023-12-20T09:32:30;8.63;;;7.80;;
6941;SDS011;3510;43.200;27.920;2023-12-20T09:35:10;16.13;;;8.07;;
6941;SDS011;3510;43.200;27.920;2023-12-20T09:37:37;9.90;;;7.90;;
6941;SDS011;3510;43.200;27.920;2023-12-20T09:40:06;8.73;;;7.77;;
6941;SDS011;3510;43.200;27.920;2023-12-20T09:42:38;10.33;;;7.53;;
6941;SDS011;3510;43.200;27.920;2023-12-20T09:45:27;6.80;;;6.17;;
6941;SDS011;3510;43.200;27.920;2023-12-20T09:48:10;10.83;;;6.73;;
6941;SDS011;3510;43.200;27.920;2023-12-20T09:50:39;6.60;;;5.90;;
6941;SDS011;3510;43.200;27.920;2023-12-20T09:53:07;7.50;;;6.80;;
6941;SDS011;3510;43.200;27.920;2023-12-20T09:55:36;7.70;;;6.50;;
6941;SDS011;3510;43.200;27.920;2023-12-20T09:58:04;8.63;;;6.93;;
6941;SDS011;3510;43.200;27.920;2023-12-20T10:00:32;8.83;;;6.00;;
6941;SDS011;3510;43.200;27.920;2023-12-20T10:02:59;6.03;;;5.53;;
6941;SDS011;3510;43.200;27.920;2023-12-20T10:05:27;6.73;;;5.90;;
6941;SDS011;3510;43.200;27.920;2023-12-20T10:07:55;13.13;;;6.43;;
6941;SDS011;3510;43.200;27.920;2023-12-20T10:10:22;7.77;;;5.30;;
6941;SDS011;3510;43.200;27.920;2023-12-20T10:13:01;6.00;;;5.50;;
6941;SDS011;3510;43.200;27.920;2023-12-20T10:15:32;7.67;;;5.27;;
6941;SDS011;3510;43.200;27.920;2023-12-20T10:17:59;9.87;;;6.00;;
6941;SDS011;3510;43.200;27.920;2023-12-20T10:20:26;8.17;;;5.83;;
6941;SDS011;3510;43.200;27.920;2023-12-20T10:22:54;6.57;;;5.50;;
6941;SDS011;3510;43.200;27.920;2023-12-20T10:25:21;6.70;;;5.93;;
6941;SDS011;3510;43.200;27.920;2023-12-20T10:27:48;9.73;;;5.70;;
6941;SDS011;3510;43.200;27.920;2023-12-20T10:30:17;6.80;;;6.03;;
6941;SDS011;3510;43.200;27.920;2023-12-20T10:32:44;6.87;;;6.17;;
6941;SDS011;3510;43.200;27.920;2023-12-20T10:35:11;10.97;;;6.97;;
6941;SDS011;3510;43.200;27.920;2023-12-20T10:37:37;10.83;;;7.07;;
6941;SDS011;3510;43.200;27.920;2023-12-20T10:40:04;11.23;;;6.20;;
6941;SDS011;3510;43.200;27.920;2023-12-20T10:42:32;7.00;;;6.40;;
6941;SDS011;3510;43.200;27.920;2023-12-20T10:45:01;9.43;;;7.00;;
6941;SDS011;3510;43.200;27.920;2023-12-20T10:47:29;8.60;;;7.37;;
6941;SDS011;3510;43.200;27.920;2023-12-20T10:49:57;9.70;;;6.67;;
6941;SDS011;3510;43.200;27.920;2023-12-20T10:52:25;16.53;;;5.73;;
6941;SDS011;3510;43.200;27.920;2023-12-20T10:54:55;7.33;;;6.53;;
6941;SDS011;3510;43.200;27.920;2023-12-20T10:57:23;6.63;;;6.03;;
6941;SDS011;3510;43.200;27.920;2023-12-20T10:59:54;6.43;;;5.83;;
6941;SDS011;3510;43.200;27.920;2023-12-20T11:02:22;7.73;;;6.20;;
6941;SDS011;3510;43.200;27.920;2023-12-20T11:04:55;6.57;;;5.97;;
6941;SDS011;3510;43.200;27.920;2023-12-20T11:07:29;6.47;;;5.83;;
6941;SDS011;3510;43.200;27.920;2023-12-20T11:10:01;6.67;;;6.07;;
6941;SDS011;3510;43.200;27.920;2023-12-20T11:12:37;9.43;;;7.23;;
6941;SDS011;3510;43.200;27.920;2023-12-20T11:15:10;7.60;;;6.90;;
6941;SDS011;3510;43.200;27.920;2023-12-20T11:17:38;9.37;;;7.73;;
6941;SDS011;3510;43.200;27.920;2023-12-20T11:20:08;9.23;;;7.43;;
6941;SDS011;3510;43.200;27.920;2023-12-20T11:22:37;9.80;;;7.43;;
6941;SDS011;3510;43.200;27.920;2023-12-20T11:25:07;8.70;;;7.80;;
6941;SDS011;3510;43.200;27.920;2023-12-20T11:27:40;8.20;;;7.37;;
6941;SDS011;3510;43.200;27.920;2023-12-20T11:30:08;8.83;;;8.00;;
6941;SDS011;3510;43.200;27.920;2023-12-20T11:32:35;11.10;;;8.17;;
6941;SDS011;3510;43.200;27.920;2023-12-20T11:35:17;10.53;;;8.53;;
6941;SDS011;3510;43.200;27.920;2023-12-20T11:37:46;8.50;;;7.63;;
6941;SDS011;3510;43.200;27.920;2023-12-20T11:40:14;9.30;;;7.60;;
6941;SDS011;3510;43.200;27.920;2023-12-20T11:42:48;12.40;;;7.50;;
6941;SDS011;3510;43.200;27.920;2023-12-20T11:45:17;7.30;;;6.67;;
6941;SDS011;3510;43.200;27.920;2023-12-20T11:47:47;11.90;;;8.30;;
6941;SDS011;3510;43.200;27.920;2023-12-20T11:50:16;8.47;;;7.67;;
6941;SDS011;3510;43.200;27.920;2023-12-20T11:52:44;8.67;;;7.30;;
6941;SDS011;3510;43.200;27.920;2023-12-20T11:55:11;9.77;;;7.40;;
6941;SDS011;3510;43.200;27.920;2023-12-20T11:57:38;7.90;;;6.73;;
6941;SDS011;3510;43.200;27.920;2023-12-20T12:00:05;8.37;;;7.57;;
6941;SDS011;3510;43.200;27.920;2023-12-20T12:02:32;12.77;;;7.93;;
6941;SDS011;3510;43.200;27.920;2023-12-20T12:04:59;11.77;;;7.70;;
6941;SDS011;3510;43.200;27.920;2023-12-20T12:07:27;9.43;;;7.97;;
6941;SDS011;3510;43.200;27.920;2023-12-20T12:09:54;9.60;;;8.00;;
6941;SDS011;3510;43.200;27.920;2023-12-20T12:12:21;8.27;;;7.47;;
6941;SDS011;3510;43.200;27.920;2023-12-20T12:14:48;11.70;;;8.43;;
6941;SDS011;3510;43.200;27.920;2023-12-20T12:17:15;9.10;;;8.20;;
6941;SDS011;3510;43.200;27.920;2023-12-20T12:19:45;11.17;;;8.10;;
6941;SDS011;3510;43.200;27.920;2023-12-20T12:22:12;10.50;;;7.90;;
6941;SDS011;3510;43.200;27.920;2023-12-20T12:24:43;9.23;;;7.57;;
6941;SDS011;3510;43.200;27.920;2023-12-20T12:27:11;15.17;;;9.57;;
6941;SDS011;3510;43.200;27.920;2023-12-20T12:29:38;8.67;;;7.73;;
6941;SDS011;3510;43.200;27.920;2023-12-20T12:32:06;9.87;;;8.90;;
6941;SDS011;3510;43.200;27.920;2023-12-20T12:34:33;12.00;;;9.93;;
6941;SDS011;3510;43.200;27.920;2023-12-20T12:37:00;12.67;;;9.70;;
6941;SDS011;3510;43.200;27.920;2023-12-20T12:39:28;15.10;;;11.00;;
6941;SDS011;3510;43.200;27.920;2023-12-20T12:41:57;14.40;;;11.10;;
6941;SDS011;3510;43.200;27.920;2023-12-20T12:44:25;17.60;;;12.07;;
6941;SDS011;3510;43.200;27.920;2023-12-20T12:46:52;15.00;;;11.80;;
6941;SDS011;3510;43.200;27.920;2023-12-20T12:49:19;12.67;;;11.30;;
6941;SDS011;3510;43.200;27.920;2023-12-20T12:51:46;16.63;;;12.50;;
6941;SDS011;3510;43.200;27.920;2023-12-20T12:54:14;17.20;;;11.27;;
6941;SDS011;3510;43.200;27.920;2023-12-20T12:56:41;17.97;;;11.97;;
6941;SDS011;3510;43.200;27.920;2023-12-20T12:59:09;25.30;;;13.07;;
6941;SDS011;3510;43.200;27.920;2023-12-20T13:01:37;15.47;;;12.50;;
6941;SDS011;3510;43.200;27.920;2023-12-20T13:04:04;15.43;;;11.80;;
6941;SDS011;3510;43.200;27.920;2023-12-20T13:06:35;16.27;;;12.23;;
6941;SDS011;3510;43.200;27.920;2023-12-20T13:09:03;16.00;;;12.30;;
6941;SDS011;3510;43.200;27.920;2023-12-20T13:11:31;16.73;;;12.07;;
6941;SDS011;3510;43.200;27.920;2023-12-20T13:13:58;29.87;;;12.63;;
6941;SDS011;3510;43.200;27.920;2023-12-20T13:16:26;18.47;;;12.50;;
6941;SDS011;3510;43.200;27.920;2023-12-20T13:18:53;15.03;;;9.63;;
6941;SDS011;3510;43.200;27.920;2023-12-20T13:21:21;13.63;;;11.67;;
6941;SDS011;3510;43.200;27.920;2023-12-20T13:23:48;19.20;;;11.80;;
6941;SDS011;3510;43.200;27.920;2023-12-20T13:26:15;16.90;;;11.47;;
6941;SDS011;3510;43.200;27.920;2023-12-20T13:28:42;14.53;;;11.30;;
6941;SDS011;3510;43.200;27.920;2023-12-20T13:31:10;16.47;;;11.13;;
6941;SDS011;3510;43.200;27.920;2023-12-20T13:39:45;14.30;;;10.50;;
6941;SDS011;3510;43.200;27.920;2023-12-20T13:42:11;17.13;;;11.13;;
6941;SDS011;3510;43.200;27.920;2023-12-20T13:44:38;14.37;;;11.07;;
6941;SDS011;3510;43.200;27.920;2023-12-20T13:47:04;13.30;;;10.77;;
6941;SDS011;3510;43.200;27.920;2023-12-20T13:49:31;15.00;;;10.77;;
6941;SDS011;3510;43.200;27.920;2023-12-20T13:51:58;15.90;;;11.03;;
6941;SDS011;3510;43.200;27.920;2023-12-20T13:54:25;12.30;;;9.77;;
6941;SDS011;3510;43.200;27.920;2023-12-20T14:00:06;15.67;;;10.97;;
6941;SDS011;3510;43.200;27.920;2023-12-20T14:02:39;14.80;;;10.93;;
6941;SDS011;3510;43.200;27.920;2023-12-20T14:05:20;16.67;;;10.70;;
6941;SDS011;3510;43.200;27.920;2023-12-20T14:08:01;13.13;;;10.77;;
6941;SDS011;3510;43.200;27.920;2023-12-20T14:10:28;16.70;;;11.37;;
6941;SDS011;3510;43.200;27.920;2023-12-20T14:12:55;15.17;;;12.07;;
6941;SDS011;3510;43.200;27.920;2023-12-20T14:21:22;24.40;;;12.43;;
6941;SDS011;3510;43.200;27.920;2023-12-20T14:23:49;19.43;;;12.97;;
6941;SDS011;3510;43.200;27.920;2023-12-20T14:26:17;18.37;;;12.27;;
6941;SDS011;3510;43.200;27.920;2023-12-20T14:28:43;19.23;;;11.90;;
6941;SDS011;3510;43.200;27.920;2023-12-20T14:31:10;24.90;;;13.37;;
6941;SDS011;3510;43.200;27.920;2023-12-20T14:33:37;21.53;;;13.07;;
6941;SDS011;3510;43.200;27.920;2023-12-20T14:36:08;18.77;;;13.03;;
6941;SDS011;3510;43.200;27.920;2023-12-20T14:38:35;17.80;;;12.80;;
6941;SDS011;3510;43.200;27.920;2023-12-20T14:41:02;21.20;;;12.63;;
6941;SDS011;3510;43.200;27.920;2023-12-20T14:43:33;20.97;;;13.57;;
6941;SDS011;3510;43.200;27.920;2023-12-20T14:46:00;18.17;;;12.13;;
6941;SDS011;3510;43.200;27.920;2023-12-20T14:48:27;15.63;;;12.13;;
6941;SDS011;3510;43.200;27.920;2023-12-20T14:50:54;22.93;;;12.67;;
6941;SDS011;3510;43.200;27.920;2023-12-20T14:53:22;19.60;;;12.07;;
6941;SDS011;3510;43.200;27.920;2023-12-20T14:55:50;17.43;;;12.07;;
6941;SDS011;3510;43.200;27.920;2023-12-20T14:58:17;20.83;;;12.40;;
6941;SDS011;3510;43.200;27.920;2023-12-20T15:00:44;15.53;;;11.03;;
6941;SDS011;3510;43.200;27.920;2023-12-20T15:03:15;15.20;;;12.27;;
6941;SDS011;3510;43.200;27.920;2023-12-20T15:05:43;16.27;;;11.80;;
6941;SDS011;3510;43.200;27.920;2023-12-20T15:08:12;15.13;;;12.17;;
6941;SDS011;3510;43.200;27.920;2023-12-20T15:10:41;15.00;;;13.23;;
6941;SDS011;3510;43.200;27.920;2023-12-20T15:13:08;16.90;;;11.83;;
6941;SDS011;3510;43.200;27.920;2023-12-20T15:15:36;13.93;;;12.27;;
6941;SDS011;3510;43.200;27.920;2023-12-20T15:18:04;16.73;;;12.10;;
6941;SDS011;3510;43.200;27.920;2023-12-20T15:20:32;23.83;;;14.17;;
6941;SDS011;3510;43.200;27.920;2023-12-20T15:22:59;29.70;;;14.73;;
6941;SDS011;3510;43.200;27.920;2023-12-20T15:25:31;23.20;;;14.83;;
6941;SDS011;3510;43.200;27.920;2023-12-20T15:28:01;24.20;;;15.10;;
6941;SDS011;3510;43.200;27.920;2023-12-20T15:30:38;18.40;;;12.17;;
6941;SDS011;3510;43.200;27.920;2023-12-20T15:33:04;19.53;;;13.77;;
6941;SDS011;3510;43.200;27.920;2023-12-20T15:35:44;22.37;;;13.53;;
6941;SDS011;3510;43.200;27.920;2023-12-20T15:38:11;20.57;;;12.53;;
6941;SDS011;3510;43.200;27.920;2023-12-20T15:40:39;26.13;;;16.70;;
6941;SDS011;3510;43.200;27.920;2023-12-20T15:43:07;18.53;;;14.03;;
6941;SDS011;3510;43.200;27.920;2023-12-20T15:45:34;21.67;;;14.17;;
6941;SDS011;3510;43.200;27.920;2023-12-20T15:48:01;21.60;;;13.53;;
6941;SDS011;3510;43.200;27.920;2023-12-20T15:50:29;23.10;;;15.17;;
6941;SDS011;3510;43.200;27.920;2023-12-20T15:52:55;21.93;;;14.73;;
6941;SDS011;3510;43.200;27.920;2023-12-20T15:55:22;22.20;;;14.77;;
6941;SDS011;3510;43.200;27.920;2023-12-20T15:57:48;23.73;;;15.63;;
6941;SDS011;3510;43.200;27.920;2023-12-20T16:03:27;19.93;;;14.57;;
6941;SDS011;3510;43.200;27.920;2023-12-20T16:05:53;22.37;;;13.37;;
6941;SDS011;3510;43.200;27.920;2023-12-20T16:08:34;21.00;;;14.67;;
6941;SDS011;3510;43.200;27.920;2023-12-20T16:11:00;33.47;;;15.47;;
6941;SDS011;3510;43.200;27.920;2023-12-20T16:13:27;24.07;;;16.03;;
6941;SDS011;3510;43.200;27.920;2023-12-20T16:15:54;25.67;;;16.40;;
6941;SDS011;3510;43.200;27.920;2023-12-20T16:18:21;25.03;;;13.97;;
6941;SDS011;3510;43.200;27.920;2023-12-20T16:20:49;18.10;;;13.77;;
6941;SDS011;3510;43.200;27.920;2023-12-20T16:23:15;21.77;;;12.73;;
6941;SDS011;3510;43.200;27.920;2023-12-20T16:25:42;22.60;;;13.43;;
6941;SDS011;3510;43.200;27.920;2023-12-20T16:28:09;19.63;;;13.40;;
6941;SDS011;3510;43.200;27.920;2023-12-20T16:30:49;17.93;;;12.10;;
6941;SDS011;3510;43.200;27.920;2023-12-20T16:33:16;24.27;;;15.33;;
6941;SDS011;3510;43.200;27.920;2023-12-20T16:35:43;27.07;;;16.37;;
6941;SDS011;3510;43.200;27.920;2023-12-20T16:38:11;25.13;;;16.40;;
6941;SDS011;3510;43.200;27.920;2023-12-20T16:40:38;20.17;;;15.50;;
6941;SDS011;3510;43.200;27.920;2023-12-20T16:43:05;16.77;;;13.40;;
6941;SDS011;3510;43.200;27.920;2023-12-20T16:45:32;28.03;;;18.17;;
6941;SDS011;3510;43.200;27.920;2023-12-20T16:47:58;29.03;;;17.03;;
6941;SDS011;3510;43.200;27.920;2023-12-20T16:50:39;18.98;;;13.73;;
6941;SDS011;3510;43.200;27.920;2023-12-20T16:56:46;18.77;;;12.37;;
6941;SDS011;3510;43.200;27.920;2023-12-20T16:59:13;23.07;;;16.30;;
6941;SDS011;3510;43.200;27.920;2023-12-20T17:01:39;9.90;;;6.97;;
6941;SDS011;3510;43.200;27.920;2023-12-20T17:04:09;15.13;;;8.33;;
6941;SDS011;3510;43.200;27.920;2023-12-20T17:06:35;12.73;;;9.33;;
6941;SDS011;3510;43.200;27.920;2023-12-20T17:09:03;10.77;;;9.17;;
6941;SDS011;3510;43.200;27.920;2023-12-20T17:11:30;10.90;;;8.00;;
6941;SDS011;3510;43.200;27.920;2023-12-20T17:13:58;13.40;;;10.10;;
6941;SDS011;3510;43.200;27.920;2023-12-20T17:16:25;10.83;;;8.97;;
6941;SDS011;3510;43.200;27.920;2023-12-20T17:18:51;20.53;;;12.07;;
6941;SDS011;3510;43.200;27.920;2023-12-20T17:21:18;13.47;;;9.27;;
6941;SDS011;3510;43.200;27.920;2023-12-20T17:23:46;16.93;;;10.17;;
6941;SDS011;3510;43.200;27.920;2023-12-20T17:26:13;13.33;;;9.10;;
6941;SDS011;3510;43.200;27.920;2023-12-20T17:28:40;9.67;;;6.87;;
6941;SDS011;3510;43.200;27.920;2023-12-20T17:31:08;10.37;;;7.30;;
6941;SDS011;3510;43.200;27.920;2023-12-20T17:33:34;12.47;;;8.77;;
6941;SDS011;3510;43.200;27.920;2023-12-20T17:36:01;11.03;;;8.93;;
6941;SDS011;3510;43.200;27.920;2023-12-20T17:38:28;18.47;;;9.00;;
6941;SDS011;3510;43.200;27.920;2023-12-20T17:40:55;19.20;;;12.20;;
6941;SDS011;3510;43.200;27.920;2023-12-20T17:43:22;26.23;;;12.90;;
6941;SDS011;3510;43.200;27.920;2023-12-20T17:45:48;21.67;;;13.17;;
6941;SDS011;3510;43.200;27.920;2023-12-20T17:51:27;20.90;;;13.07;;
6941;SDS011;3510;43.200;27.920;2023-12-20T17:53:54;22.53;;;13.47;;
6941;SDS011;3510;43.200;27.920;2023-12-20T17:56:34;21.97;;;13.07;;
6941;SDS011;3510;43.200;27.920;2023-12-20T17:59:15;25.67;;;12.33;;
6941;SDS011;3510;43.200;27.920;2023-12-20T18:01:41;19.87;;;12.37;;
6941;SDS011;3510;43.200;27.920;2023-12-20T18:04:08;17.80;;;11.03;;
6941;SDS011;3510;43.200;27.920;2023-12-20T18:06:36;19.57;;;10.43;;
6941;SDS011;3510;43.200;27.920;2023-12-20T18:09:03;18.83;;;10.20;;
6941;SDS011;3510;43.200;27.920;2023-12-20T18:11:29;14.60;;;9.73;;
6941;SDS011;3510;43.200;27.920;2023-12-20T18:13:56;21.60;;;11.20;;
6941;SDS011;3510;43.200;27.920;2023-12-20T18:16:23;19.40;;;10.63;;
6941;SDS011;3510;43.200;27.920;2023-12-20T18:18:49;20.10;;;11.63;;
6941;SDS011;3510;43.200;27.920;2023-12-20T18:21:16;16.37;;;9.97;;
6941;SDS011;3510;43.200;27.920;2023-12-20T18:23:44;16.13;;;10.43;;
6941;SDS011;3510;43.200;27.920;2023-12-20T18:26:11;26.33;;;12.97;;
6941;SDS011;3510;43.200;27.920;2023-12-20T18:28:37;27.70;;;14.70;;
6941;SDS011;3510;43.200;27.920;2023-12-20T18:31:04;42.53;;;18.07;;
6941;SDS011;3510;43.200;27.920;2023-12-20T18:33:31;41.30;;;20.90;;
6941;SDS011;3510;43.200;27.920;2023-12-20T18:36:00;44.13;;;17.40;;
6941;SDS011;3510;43.200;27.920;2023-12-20T18:38:28;24.40;;;12.83;;
6941;SDS011;3510;43.200;27.920;2023-12-20T18:40:58;21.63;;;10.50;;
6941;SDS011;3510;43.200;27.920;2023-12-20T18:43:25;17.40;;;11.10;;
6941;SDS011;3510;43.200;27.920;2023-12-20T18:45:52;21.57;;;13.53;;
6941;SDS011;3510;43.200;27.920;2023-12-20T18:48:19;17.13;;;11.07;;
6941;SDS011;3510;43.200;27.920;2023-12-20T18:50:46;9.53;;;8.13;;
6941;SDS011;3510;43.200;27.920;2023-12-20T18:53:13;17.67;;;10.87;;
6941;SDS011;3510;43.200;27.920;2023-12-20T18:55:39;15.60;;;11.40;;
6941;SDS011;3510;43.200;27.920;2023-12-20T18:58:08;23.93;;;13.20;;
6941;SDS011;3510;43.200;27.920;2023-12-20T19:00:34;26.20;;;16.33;;
6941;SDS011;3510;43.200;27.920;2023-12-20T19:03:01;34.00;;;15.37;;
6941;SDS011;3510;43.200;27.920;2023-12-20T19:05:28;7.67;;;6.90;;
6941;SDS011;3510;43.200;27.920;2023-12-20T19:07:55;7.23;;;5.53;;
6941;SDS011;3510;43.200;27.920;2023-12-20T19:10:21;6.97;;;5.63;;
6941;SDS011;3510;43.200;27.920;2023-12-20T19:12:48;14.07;;;9.77;;
6941;SDS011;3510;43.200;27.920;2023-12-20T19:15:16;10.13;;;8.00;;
6941;SDS011;3510;43.200;27.920;2023-12-20T19:17:43;15.17;;;10.17;;
6941;SDS011;3510;43.200;27.920;2023-12-20T19:20:10;26.23;;;15.83;;
6941;SDS011;3510;43.200;27.920;2023-12-20T19:22:51;28.50;;;16.53;;
6941;SDS011;3510;43.200;27.920;2023-12-20T19:25:17;19.93;;;10.77;;
6941;SDS011;3510;43.200;27.920;2023-12-20T19:27:44;17.03;;;11.90;;
6941;SDS011;3510;43.200;27.920;2023-12-20T19:30:11;23.80;;;13.27;;
6941;SDS011;3510;43.200;27.920;2023-12-20T19:35:50;19.87;;;12.67;;
6941;SDS011;3510;43.200;27.920;2023-12-20T19:38:17;20.33;;;11.13;;
6941;SDS011;3510;43.200;27.920;2023-12-20T19:40:58;31.03;;;16.67;;
6941;SDS011;3510;43.200;27.920;2023-12-20T19:43:38;15.17;;;9.83;;
6941;SDS011;3510;43.200;27.920;2023-12-20T19:46:05;34.47;;;19.33;;
6941;SDS011;3510;43.200;27.920;2023-12-20T19:48:32;32.93;;;16.07;;
6941;SDS011;3510;43.200;27.920;2023-12-20T19:51:00;24.67;;;14.43;;
6941;SDS011;3510;43.200;27.920;2023-12-20T19:53:41;26.97;;;15.97;;
6941;SDS011;3510;43.200;27.920;2023-12-20T19:56:08;27.87;;;16.17;;
6941;SDS011;3510;43.200;27.920;2023-12-20T19:58:35;30.53;;;18.27;;
6941;SDS011;3510;43.200;27.920;2023-12-20T20:01:02;27.63;;;16.30;;
6941;SDS011;3510;43.200;27.920;2023-12-20T20:03:28;40.40;;;16.53;;
6941;SDS011;3510;43.200;27.920;2023-12-20T20:05:55;27.57;;;15.60;;
6941;SDS011;3510;43.200;27.920;2023-12-20T20:08:23;26.07;;;16.43;;
6941;SDS011;3510;43.200;27.920;2023-12-20T20:10:50;21.40;;;13.17;;
6941;SDS011;3510;43.200;27.920;2023-12-20T20:13:17;28.10;;;14.97;;
6941;SDS011;3510;43.200;27.920;2023-12-20T20:15:43;20.73;;;10.73;;
6941;SDS011;3510;43.200;27.920;2023-12-20T20:18:10;26.13;;;12.17;;
6941;SDS011;3510;43.200;27.920;2023-12-20T20:20:37;15.50;;;10.97;;
6941;SDS011;3510;43.200;27.920;2023-12-20T20:23:04;24.03;;;14.70;;
6941;SDS011;3510;43.200;27.920;2023-12-20T20:25:32;27.87;;;14.53;;
6941;SDS011;3510;43.200;27.920;2023-12-20T20:27:59;26.87;;;15.83;;
6941;SDS011;3510;43.200;27.920;2023-12-20T20:30:26;23.47;;;13.57;;
6941;SDS011;3510;43.200;27.920;2023-12-20T20:32:52;29.10;;;16.00;;
6941;SDS011;3510;43.200;27.920;2023-12-20T20:35:19;30.33;;;18.47;;
6941;SDS011;3510;43.200;27.920;2023-12-20T20:37:46;45.47;;;22.40;;
6941;SDS011;3510;43.200;27.920;2023-12-20T20:40:13;19.50;;;11.67;;
6941;SDS011;3510;43.200;27.920;2023-12-20T20:42:44;27.93;;;15.90;;
6941;SDS011;3510;43.200;27.920;2023-12-20T20:45:12;36.30;;;21.20;;
6941;SDS011;3510;43.200;27.920;2023-12-20T20:47:40;20.53;;;13.13;;
6941;SDS011;3510;43.200;27.920;2023-12-20T20:50:07;16.87;;;11.63;;
6941;SDS011;3510;43.200;27.920;2023-12-20T20:52:34;12.07;;;8.83;;
6941;SDS011;3510;43.200;27.920;2023-12-20T20:55:01;7.07;;;6.47;;
6941;SDS011;3510;43.200;27.920;2023-12-20T20:57:28;13.13;;;8.67;;
6941;SDS011;3510;43.200;27.920;2023-12-20T20:59:56;24.93;;;13.30;;
6941;SDS011;3510;43.200;27.920;2023-12-20T21:02:23;57.37;;;29.33;;
6941;SDS011;3510;43.200;27.920;2023-12-20T21:04:50;70.67;;;34.20;;
6941;SDS011;3510;43.200;27.920;2023-12-20T21:07:16;49.83;;;26.87;;
6941;SDS011;3510;43.200;27.920;2023-12-20T21:09:43;39.10;;;22.03;;
6941;SDS011;3510;43.200;27.920;2023-12-20T21:12:10;36.20;;;18.70;;
6941;SDS011;3510;43.200;27.920;2023-12-20T21:14:36;29.67;;;17.30;;
6941;SDS011;3510;43.200;27.920;2023-12-20T21:17:04;59.90;;;30.23;;
6941;SDS011;3510;43.200;27.920;2023-12-20T21:19:31;30.60;;;18.10;;
6941;SDS011;3510;43.200;27.920;2023-12-20T21:21:58;27.57;;;15.80;;
6941;SDS011;3510;43.200;27.920;2023-12-20T21:24:25;33.07;;;14.20;;
6941;SDS011;3510;43.200;27.920;2023-12-20T21:26:52;29.43;;;13.27;;
6941;SDS011;3510;43.200;27.920;2023-12-20T21:29:20;13.90;;;8.90;;
6941;SDS011;3510;43.200;27.920;2023-12-20T21:31:47;9.37;;;6.43;;
6941;SDS011;3510;43.200;27.920;2023-12-20T21:34:14;7.07;;;6.40;;
6941;SDS011;3510;43.200;27.920;2023-12-20T21:36:41;9.07;;;6.73;;
6941;SDS011;3510;43.200;27.920;2023-12-20T21:39:08;10.27;;;7.60;;
6941;SDS011;3510;43.200;27.920;2023-12-20T21:41:35;28.03;;;16.23;;
6941;SDS011;3510;43.200;27.920;2023-12-20T21:44:02;11.63;;;9.13;;
6941;SDS011;3510;43.200;27.920;2023-12-20T21:46:28;31.83;;;17.33;;
6941;SDS011;3510;43.200;27.920;2023-12-20T21:48:55;34.40;;;18.10;;
6941;SDS011;3510;43.200;27.920;2023-12-20T21:51:23;20.00;;;11.33;;
6941;SDS011;3510;43.200;27.920;2023-12-20T21:53:50;18.30;;;12.67;;
6941;SDS011;3510;43.200;27.920;2023-12-20T21:56:17;22.60;;;12.80;;
6941;SDS011;3510;43.200;27.920;2023-12-20T21:58:44;22.07;;;13.43;;
6941;SDS011;3510;43.200;27.920;2023-12-20T22:01:11;31.67;;;15.47;;
6941;SDS011;3510;43.200;27.920;2023-12-20T22:03:38;24.13;;;15.97;;
6941;SDS011;3510;43.200;27.920;2023-12-20T22:06:05;31.27;;;16.73;;
6941;SDS011;3510;43.200;27.920;2023-12-20T22:08:33;32.73;;;16.67;;